CYULKMCD

Guest
Details From CYUL - Montreal Pierre E Trudeau Intl
To KMCD - Mackinac Island
Flight Number -
Tags Generated
Created
Modified
Stats Distance 457 nm / 846 km
Max Altitude 0 ft / 0 m
Waypoints 3
Social Downloads 0
Likes 0
Share VATSIM

Download

Looking for another format? Having issues loading an existing format? Contact us
Advertisement - Login to hide

Notes

Generated

Route

CYUL MABEH KMCD

ID Type Via Altitude Latitude Longitude Leg Dist Tot Dist Heading (true) Name
O CYUL APT - 0 ft / 0 m 45.46250˚ -73.76500˚ - 0 nm - -
MABEH FIX - 0 ft / 0 m 45.86278˚ -84.63119˚ 456 nm 456 nm 277° / 269° -
O KMCD APT - 0 ft / 0 m 45.86371˚ -84.64399˚ 0 nm 456 nm 276° / 276° MACKINAC ISLAND

Altitude Profile

Advertisement - Login to hide

Weather


0- 5 10 15 20 25 30 35+ Temperature / ° C

Clouds and Precipitation
Forecast for 2018-05-25 18:00 UTC. Updated 4 hours ago

Ground ~20,000 ft ~40,000 ft Winds

CYUL

Details ICAO CYUL (YUL)
Name Montreal Pierre E Trudeau Intl
Region Canada
Timezone America/Montreal (UTC-4.0)
Stats Elevation 117 ft / 36 m (AMSL)
Location 45.467269° -73.744028°
Runways 3
Magnetic Variation 14.292° W

METAR

CYUL 252100Z 23019G26KT 15SM FEW045 BKN190 OVC250 25/15 A2965 RMK CU1AC5CI3 CU TR SLP042 DENSITY ALT 1600FT

Decode

TAF

TAF TAF CYUL 252042Z 2521/2618 25018G28KT P6SM FEW050 SCT180 BKN250 TEMPO 2522/2601 P6SM -SHRA BKN050 BKN180 FM260100 24015KT P6SM FEW040 FM260700 26008KT P6SM -SHRA FEW025 BKN060 OVC180 PROB30 2608/2611 1SM BR FM261100 VRB03KT 4SM -SHRA BR BKN015 OVC080 PROB30 2611/2616 11/2SM TSRA BR BKN010 OVC050CB FM261600 03015G25KT P6SM -SHRA OVC015 RMK NXT FCST BY 260000Z

Decode

Departure Runways

ID Width Length Bearing (true) Bearing (mag) Surface Threshold Offset Overrun Length
06L 200 ft / 61 m 11,020 ft / 3,359 m 42.62° 56.91° Asphalt 0 ft / 0 m 0 ft / 0 m
06R 200 ft / 61 m 9,706 ft / 2,958 m 41.23° 55.52° Asphalt 0 ft / 0 m 0 ft / 0 m
10 200 ft / 61 m 6,831 ft / 2,082 m 87.45° 101.74° Asphalt 0 ft / 0 m 0 ft / 0 m
24L 200 ft / 61 m 9,706 ft / 2,958 m 221.25° 235.54° Asphalt 0 ft / 0 m 0 ft / 0 m
24R 200 ft / 61 m 11,020 ft / 3,359 m 222.64° 236.93° Asphalt 0 ft / 0 m 0 ft / 0 m
28 200 ft / 61 m 6,831 ft / 2,082 m 267.47° 281.76° Asphalt 0 ft / 0 m 0 ft / 0 m

KMCD

Details ICAO KMCD
Name MACKINAC ISLAND
Region United States
Timezone America/Detroit (UTC-4.0)
Stats Elevation 740 ft / 226 m (AMSL)
Location 45.864935° -84.637344°
Runways 1
Magnetic Variation 7.137° W

METAR

KMCD 252115Z AUTO 27011G15KT 10SM SCT055 21/15 A2976 RMK AO2 T02070148

Decode

TAF

Not found

Destination Runways

ID Width Length Bearing (true) Bearing (mag) Surface Threshold Offset Overrun Length
08 75 ft / 23 m 3,492 ft / 1,065 m 75.21° 82.35° Asphalt 0 ft / 0 m 0 ft / 0 m
26 75 ft / 23 m 3,492 ft / 1,065 m 255.22° 262.36° Asphalt 0 ft / 0 m 0 ft / 0 m